Latest Weather Observations for Wattamolla

IDN60801

Issued at 5:35 am EST Wednesday 3 September 2014 (issued every 30 minutes, with the page automatically refreshed every 10 minutes)

About weather observations | Map of weather stations | Latest weather observations for NSW | Other Formats
Station Details ID: 066208 Name: WATTAMOLLA AWS Lat: -34.14 Lon: 151.12 Height: 44.0 m
Data from the previous 72 hours. | See also: Recent months for locations in New South Wales
Date/Time
EST
Temp
°C
App
Temp
°C
Dew
Point
Rel
Hum
%
Delta-T
°C
Wind Press
QNH
hPa
Press
MSL
hPa
Rain
since 9 am
mm
Dir
 
Spd
km/h
Gust
km/h
Spd
kts
Gust
kts
03/05:32am - - - - - S 61 85 33 46 - - -
03/05:30am - - - - - S 82 107 44 58 - - -
03/05:18am - - - - - S 85 104 46 56 - - -
03/05:11am - - - - - S 91 104 49 56 - - -
03/05:00am - - - - - S 70 96 38 52 - - -
03/04:35am - - - - - S 72 93 39 50 - - -
03/04:30am - - - - - S 74 89 40 48 - - -
03/04:28am - - - - - S 78 89 42 48 - - -
03/04:16am - - - - - S 57 76 31 41 - - -
03/04:00am - - - - - S 76 96 41 52 - - -
03/03:30am - - - - - S 76 102 41 55 - - -
03/03:26am - - - - - S 74 93 40 50 - - -
03/03:25am - - - - - S 72 87 39 47 - - -
03/03:12am - - - - - S 96 115 52 62 - - -
03/03:09am - - - - - S 98 115 53 62 - - -
03/03:07am - - - - - S 78 106 42 57 - - -
03/03:00am - - - - - S 76 93 41 50 - - -
03/02:32am - - - - - S 80 100 43 54 - - -
03/02:30am - - - - - S 59 89 32 48 - - -
03/02:04am - - - - - S 69 89 37 48 - - -
03/02:02am - - - - - S 72 89 39 48 - - -
03/02:00am - - - - - S 54 83 29 45 - - -
03/01:30am - - - - - S 61 95 33 51 - - -
03/01:00am - - - - - S 59 100 32 54 - - -
03/12:58am - - - - - S 59 100 32 54 - - -
03/12:52am - - - - - S 59 80 32 43 - - -
03/12:51am - - - - - S 65 80 35 43 - - -
03/12:30am - - - - - S 44 69 24 37 - - -
03/12:00am - - - - - S 46 82 25 44 - - -
 
Date/Time
EST
Temp
°C
App
Temp
°C
Dew
Point
Rel
Hum
%
Delta-T
°C
Wind Press
QNH
hPa
Press
MSL
hPa
Rain
since 9 am
mm
Dir
 
Spd
km/h
Gust
km/h
Spd
kts
Gust
kts
02/11:54pm - - - - - S 54 82 29 44 - - -
02/11:30pm - - - - - SSW 35 61 19 33 - - -
02/11:00pm - - - - - SSW 33 57 18 31 - - -
02/10:30pm - - - - - SW 33 56 18 30 - - -
02/10:00pm - - - - - SSW 32 59 17 32 - - -
02/09:30pm - - - - - SSW 37 56 20 30 - - -
02/09:00pm - - - - - S 37 63 20 34 - - -
02/08:30pm - - - - - SSW 35 61 19 33 - - -
02/08:00pm - - - - - SSW 30 50 16 27 - - -
02/07:30pm - - - - - SSW 32 59 17 32 - - -
02/07:00pm - - - - - S 33 61 18 33 - - -
02/06:52pm - - - - - S 39 61 21 33 - - -
02/06:51pm - - - - - SSW 28 48 15 26 - - -
02/06:30pm - - - - - SW 17 26 9 14 - - -
02/06:00pm - - - - - S 28 39 15 21 - - -
02/05:30pm - - - - - SW 22 33 12 18 - - -
02/05:00pm - - - - - SW 22 35 12 19 - - -
02/04:30pm - - - - - W 19 30 10 16 - - -
02/04:00pm - - - - - SW 15 22 8 12 - - -
02/03:30pm - - - - - S 22 33 12 18 - - -
02/03:00pm - - - - - SSW 22 33 12 18 - - -
02/02:30pm - - - - - S 28 44 15 24 - - -
02/02:00pm - - - - - S 39 54 21 29 - - -
02/01:51pm - - - - - S 32 50 17 27 - - -
02/01:30pm - - - - - S 44 59 24 32 - - -
02/01:00pm - - - - - S 39 50 21 27 - - -
02/12:30pm - - - - - S 44 52 24 28 - - -
02/12:00pm - - - - - S 50 59 27 32 - - -
02/11:51am - - - - - S 46 54 25 29 - - -
02/11:30am - - - - - SSW 17 26 9 14 - - -
02/11:00am - - - - - S 17 24 9 13 - - -
02/10:30am - - - - - S 19 24 10 13 - - -
02/10:00am - - - - - SW 13 19 7 10 - - -
02/09:57am - - - - - SW 13 19 7 10 - - -
02/09:48am - - - - - S 39 44 21 24 - - -
02/09:30am - - - - - W 15 26 8 14 - - -
02/09:00am - - - - - W 15 20 8 11 - - -
02/08:30am - - - - - W 13 19 7 10 - - -
02/08:00am - - - - - NW 9 11 5 6 - - -
02/07:30am - - - - - NNW 11 15 6 8 - - -
02/07:00am - - - - - WNW 20 30 11 16 - - -
02/06:30am - - - - - WNW 26 33 14 18 - - -
02/06:00am - - - - - WNW 26 35 14 19 - - -
02/05:30am - - - - - WNW 26 39 14 21 - - -
02/05:00am - - - - - W 28 39 15 21 - - -
02/04:30am - - - - - W 30 43 16 23 - - -
02/04:00am - - - - - W 24 39 13 21 - - -
02/03:30am - - - - - WNW 20 28 11 15 - - -
02/03:00am - - - - - NW 20 26 11 14 - - -
02/02:30am - - - - - NW 19 28 10 15 - - -
02/02:00am - - - - - NNW 15 19 8 10 - - -
02/01:30am - - - - - N 9 13 5 7 - - -
02/01:00am - - - - - N 9 11 5 6 - - -
02/12:30am - - - - - N 13 15 7 8 - - -
02/12:00am - - - - - N 13 15 7 8 - - -
 
Date/Time
EST
Temp
°C
App
Temp
°C
Dew
Point
Rel
Hum
%
Delta-T
°C
Wind Press
QNH
hPa
Press
MSL
hPa
Rain
since 9 am
mm
Dir
 
Spd
km/h
Gust
km/h
Spd
kts
Gust
kts
01/11:30pm - - - - - N 13 17 7 9 - - -
01/11:00pm - - - - - N 11 13 6 7 - - -
01/10:30pm - - - - - N 13 15 7 8 - - -
01/10:00pm - - - - - NNW 13 19 7 10 - - -
01/09:30pm - - - - - NW 15 19 8 10 - - -
01/09:00pm - - - - - NW 20 22 11 12 - - -
01/08:30pm - - - - - NW 19 20 10 11 - - -
01/08:00pm - - - - - NNW 15 17 8 9 - - -
01/07:30pm - - - - - NNW 13 15 7 8 - - -
01/07:00pm - - - - - N 15 19 8 10 - - -
01/06:30pm - - - - - N 19 22 10 12 - - -
01/06:00pm - - - - - N 17 22 9 12 - - -
01/05:30pm - - - - - N 17 20 9 11 - - -
01/05:00pm - - - - - NNE 17 24 9 13 - - -
01/04:30pm - - - - - NNE 15 22 8 12 - - -
01/04:00pm - - - - - NE 13 19 7 10 - - -
01/03:30pm - - - - - NE 15 22 8 12 - - -
01/03:00pm - - - - - NE 15 26 8 14 - - -
01/02:30pm - - - - - NE 15 24 8 13 - - -
01/02:00pm - - - - - N 13 20 7 11 - - -
01/01:30pm - - - - - N 19 26 10 14 - - -
01/01:00pm - - - - - NNE 11 19 6 10 - - -
01/12:30pm - - - - - NNW 13 26 7 14 - - -
01/12:00pm - - - - - N 13 22 7 12 - - -
01/11:30am - - - - - N 17 22 9 12 - - -
01/11:00am - - - - - N 15 20 8 11 - - -
01/10:30am - - - - - N 13 20 7 11 - - -
01/10:00am - - - - - NNW 15 22 8 12 - - -
01/09:30am - - - - - NNW 17 24 9 13 - - -
01/09:00am - - - - - NNW 17 24 9 13 - - -
01/08:30am - - - - - NW 19 24 10 13 - - -
01/08:00am - - - - - NW 20 28 11 15 - - -
01/07:30am - - - - - NW 19 28 10 15 - - -
01/07:00am - - - - - NW 19 26 10 14 - - -
01/06:30am - - - - - NNW 7 11 4 6 - - -
01/06:00am - - - - - N 7 7 4 4 - - -
01/05:30am - - - - - NNW 7 11 4 6 - - -
01/05:00am - - - - - N 6 11 3 6 - - -
01/04:30am - - - - - NW 9 15 5 8 - - -
01/04:00am - - - - - NNW 9 13 5 7 - - -
01/03:30am - - - - - NNW 11 13 6 7 - - -
01/03:00am - - - - - NNW 9 13 5 7 - - -
01/02:30am - - - - - N 11 13 6 7 - - -
01/02:00am - - - - - N 13 15 7 8 - - -
01/01:30am - - - - - N 11 13 6 7 - - -
01/01:00am - - - - - NNW 13 15 7 8 - - -
01/12:30am - - - - - NW 11 13 6 7 - - -
01/12:00am - - - - - NW 13 17 7 9 - - -
 
Date/Time
EST
Temp
°C
App
Temp
°C
Dew
Point
Rel
Hum
%
Delta-T
°C
Wind Press
QNH
hPa
Press
MSL
hPa
Rain
since 9 am
mm
Dir
 
Spd
km/h
Gust
km/h
Spd
kts
Gust
kts
31/11:30pm - - - - - NNW 13 17 7 9 - - -
31/11:00pm - - - - - NW 15 19 8 10 - - -
31/10:30pm - - - - - NW 17 20 9 11 - - -
31/10:00pm - - - - - NW 17 17 9 9 - - -
31/09:30pm - - - - - NW 13 15 7 8 - - -
31/09:00pm - - - - - NW 11 13 6 7 - - -
31/08:30pm - - - - - NW 9 11 5 6 - - -
31/08:00pm - - - - - NW 9 13 5 7 - - -
31/07:30pm - - - - - NNW 6 9 3 5 - - -
31/07:00pm - - - - - CALM 0 0 0 0 - - -
31/06:30pm - - - - - N 6 9 3 5 - - -
31/06:00pm - - - - - ESE 7 11 4 6 - - -
31/05:30pm - - - - - SE 11 15 6 8 - - -
31/05:00pm - - - - - SSE 13 17 7 9 - - -
31/04:30pm - - - - - SSE 15 19 8 10 - - -
31/04:00pm - - - - - S 15 19 8 10 - - -
31/03:30pm - - - - - S 17 19 9 10 - - -
31/03:00pm - - - - - SSE 17 19 9 10 - - -
31/02:30pm - - - - - SSE 15 19 8 10 - - -
31/02:00pm - - - - - SSE 15 19 8 10 - - -
31/01:30pm - - - - - S 17 19 9 10 - - -
31/01:00pm - - - - - SSE 17 20 9 11 - - -
31/12:30pm - - - - - S 19 24 10 13 - - -
31/12:00pm - - - - - S 19 20 10 11 - - -
31/11:30am - - - - - S 20 24 11 13 - - -
31/11:00am - - - - - S 20 22 11 12 - - -
31/10:30am - - - - - S 20 26 11 14 - - -
31/10:00am - - - - - S 20 26 11 14 - - -
31/09:30am - - - - - S 17 26 9 14 - - -
31/09:00am - - - - - S 13 19 7 10 - - -
31/08:30am - - - - - SSW 13 20 7 11 - - -
31/08:00am - - - - - S 11 17 6 9 - - -
31/07:30am - - - - - W 11 17 6 9 - - -
31/07:00am - - - - - W 13 15 7 8 - - -
31/06:30am - - - - - W 11 17 6 9 - - -
31/06:00am - - - - - W 11 15 6 8 - - -

Other Formats:

Comma delimited format used in spreadsheet applications
http://www.bom.gov.au/fwo/IDN60801/IDN60801.95752.axf

JavaScript Object Notation format (JSON) in row-major order
http://www.bom.gov.au/fwo/IDN60801/IDN60801.95752.json